Airfield :
LOGIN :

Register | Disclaimer

   EN    FR    IT 

 










Legend :    VFR   Marginal VFR   IFR   Intensive IFR   Very Intensive IFR
Visi :
Ceiling :
>= 8 km
>= 3000ft
5 to 8 km
1000 to 3000 ft
1500m to 5 km
500 to 1000 ft
800 to 1500m
200 to 500 ft
< 800m
< 200 ft
Symbols :   Thunderstorms  Fog  Heavy snow  Heavy precipitations  Wind > 20 kt
SIGMETs :     Misc.  Thunderstorms  Icing  Turbulence  Mountain Waves  Volcanic Ashes







- Airport Elevation : 187 ft


ETNW - Wunstorf AB

CURRENT METAR :
  • 232020Z AUTO 28010KT 5000 // ////// 09/08 Q1016 ///

EXPIRED METARs :
  • 231920Z AUTO 28011KT 5000 // ////// 09/08 Q1014 ///
  • 231820Z AUTO 31005KT 5000 // ////// 09/08 Q1013 ///

Expired Forecast.
No reported NOTAMs for that airfield.
2 SIGMETs reported for the Bremen FIR (EDWW) :
 
Severe icing
EDWW SIGMET 3 VALID 231927/232200 EDZH
EDWW BREMEN FIR SEV ICE OBS S OF N5240 AND E OF E01205 FL070/230 MOV ESE NC=
Severe turbulence
EDWW SIGMET 2 VALID 231730/232130 EDZH
EDWW BREMEN FIR SEV TURB FCST SE OF LINE N5202 E00856 - N5243 E01445 FL150/245 MOV E WKN=



MET'MAP, your aeronautical weather chart ! - Copyright ORBIFLY December 2007 - Disclaimer

ORBIFLY MET'MAP TEAM :

Programming & Development : Alexandra Zaïnal
Concept & Development : Baudouin d'Aumeries
Co-Development & Prog : Marc-Olivier Méhu
Technical & hardware support : Manuel Goepfert

Contact : metmap@orbifly.com




SOURCES & CREDITS :

   NOAA